METAR AND TAF INFORMATION
METAR FOR ENOL
ADDS - METARS form results

(0302 UTC 28 September 2020)
Data provider http://aviationweather.gov/metar/data/
 
METAR text: ENOL 280250Z 13014KT CAVOK 13/10 Q1012
Conditions at: ENOL (ORLAND III(NOR-A, NO) observed 0250 UTC 28 September 2020
Temperature: 13.0°C (55°F)
Dewpoint: 10.0°C (50°F) [RH = 82%]
Pressure (altimeter): 29.88 inches Hg (1012.0 mb)
Winds: from the SE (130 degrees) at 16 MPH (14 knots; 7.2 m/s)
Visibility: 6 or more miles (10+ km)
Ceiling: ceiling and visibility are OK
Clouds: unknown
Weather: no significant weather observed at this time

METAR text: ENOL 280220Z 12016KT CAVOK 13/10 Q1012
Conditions at: ENOL (ORLAND III(NOR-A, NO) observed 0220 UTC 28 September 2020
Temperature: 13.0°C (55°F)
Dewpoint: 10.0°C (50°F) [RH = 82%]
Pressure (altimeter): 29.88 inches Hg (1012.0 mb)
Winds: from the ESE (120 degrees) at 18 MPH (16 knots; 8.2 m/s)
Visibility: 6 or more miles (10+ km)
Ceiling: ceiling and visibility are OK
Clouds: unknown
Weather: no significant weather observed at this time

Forecast for: ENOL (ORLAND III(NOR-A, NO)
Text: TAF ENOL 2800/2824 13015KT CAVOK
Forecast period: 0000 UTC 28 September 2020 to 0000 UTC 29 September 2020
Forecast type: FROM: standard forecast or significant change
Winds: from the SE (130 degrees) at 17 MPH (15 knots; 7.7 m/s)
Visibility: 6 or more miles (10+ km)
Ceiling: unknown
Clouds: missing
Weather: NSW  (no significant weather)

 AIRPORT MAP

 RUNWAY INFORMATION
Runway 15 Runway length 8904 ft Runway width 148 ft
Runway elevation 18 ft Runway displaced threshold 0 ft Runway heading 154
Runway 33 Runway length 8904 ft Runway width 148 ft
Runway elevation 28 ft Runway displaced threshold 0 ft Runway heading 334

 AIRPORT FREQUENCIES
Type APP Name APP Frequency 118.25 MHZ
Type ARR Name ARR Frequency 126.2 MHZ
Type TWR Name TWR Frequency 118.7 MHZ

 AIRPORT NEAR NAVIGATION AIDS
Type TACAN Name Orland Frequency 111400 KHZ
Type NDB Name Uthaug Frequency 366 KHZ





Powered by Virtual Airlines Manager